Time;durP1;ratioP1;P1;durP2;ratioP2;P2;SDS_P1;SDS_P2;PMS_P1;PMS_P2;Temp;Humidity;BMP_temperature;BMP_pressure;BME280_temperature;BME280_humidity;BME280_pressure;Samples;Min_cycle;Max_cycle;Signal;HPM_P1;HPM_P2
2022/08/28 00:00:31;;;;;;;10.50;5.90;;;20.50;99.90;;;;;;5069688;28;20025;-82
2022/08/28 00:02:57;;;;;;;9.38;5.88;;;20.40;99.90;;;;;;5065793;28;20670;-82
2022/08/28 00:05:25;;;;;;;7.50;5.70;;;20.40;99.90;;;;;;5053888;28;20086;-84
2022/08/28 00:07:51;;;;;;;8.93;5.13;;;20.40;99.90;;;;;;5063424;28;20120;-82
2022/08/28 00:10:19;;;;;;;6.82;5.13;;;20.50;99.90;;;;;;5062785;28;20162;-83
2022/08/28 00:12:46;;;;;;;8.00;4.85;;;20.50;99.90;;;;;;5055653;28;20073;-83
2022/08/28 00:15:16;;;;;;;9.35;5.45;;;20.40;99.90;;;;;;5081001;28;20035;-83
2022/08/28 00:17:42;;;;;;;9.63;4.82;;;20.40;99.90;;;;;;5080824;28;20092;-81
2022/08/28 00:20:10;;;;;;;9.68;4.90;;;20.40;99.90;;;;;;5078954;28;20056;-83
2022/08/28 00:22:37;;;;;;;7.80;4.00;;;20.50;99.90;;;;;;5063224;28;20030;-81
2022/08/28 00:25:04;;;;;;;14.75;4.35;;;20.40;99.90;;;;;;5063549;28;20037;-82
2022/08/28 00:30:14;;;;;;;5.65;3.28;;;20.30;99.90;;;;;;5061312;28;20498;-82
2022/08/28 00:32:39;;;;;;;6.13;2.97;;;20.30;99.90;;;;;;5069423;28;20029;-83
2022/08/28 00:35:06;;;;;;;7.25;2.85;;;20.30;99.90;;;;;;5072167;28;20020;-83
2022/08/28 00:37:31;;;;;;;8.23;3.30;;;20.20;99.90;;;;;;5062591;28;20020;-83
2022/08/28 00:39:57;;;;;;;10.85;3.38;;;20.10;99.90;;;;;;5053987;28;20475;-83
2022/08/28 00:42:22;;;;;;;7.53;2.25;;;20.20;99.90;;;;;;5043180;28;20040;-84
2022/08/28 00:44:48;;;;;;;6.18;2.85;;;20.10;99.90;;;;;;5066197;28;20029;-84
2022/08/28 00:47:13;;;;;;;5.55;2.08;;;20.10;99.90;;;;;;5070413;28;20451;-85
2022/08/28 00:49:48;;;;;;;10.90;2.42;;;20.10;99.90;;;;;;5069130;28;20025;-85
2022/08/28 00:52:14;;;;;;;5.10;2.00;;;20.10;99.90;;;;;;5070609;28;20505;-86
2022/08/28 00:54:55;;;;;;;6.40;2.30;;;20.10;99.90;;;;;;5048142;28;20009;-84
2022/08/28 00:57:25;;;;;;;7.15;1.85;;;20.00;99.90;;;;;;5044539;28;20368;-83
2022/08/28 00:59:51;;;;;;;9.85;2.28;;;19.90;99.90;;;;;;5054916;28;20056;-82
2022/08/28 01:02:17;;;;;;;9.50;2.83;;;19.90;99.90;;;;;;5064091;28;20067;-83
2022/08/28 01:04:43;;;;;;;11.60;2.63;;;19.90;99.90;;;;;;5065125;28;20020;-84
2022/08/28 01:07:13;;;;;;;8.70;2.40;;;19.80;99.90;;;;;;5062879;28;20534;-85
2022/08/28 01:09:43;;;;;;;8.60;2.10;;;19.70;99.90;;;;;;5052129;28;20035;-82
2022/08/28 01:12:14;;;;;;;7.97;2.33;;;19.70;99.90;;;;;;5070158;28;20141;-84
2022/08/28 01:14:44;;;;;;;6.97;2.50;;;19.70;99.90;;;;;;5071066;28;20016;-81
2022/08/28 01:17:12;;;;;;;6.05;1.80;;;19.60;99.90;;;;;;5066981;28;20063;-83
2022/08/28 01:19:45;;;;;;;3.67;1.90;;;19.50;99.90;;;;;;5067103;28;20040;-84
2022/08/28 01:22:20;;;;;;;9.95;2.17;;;19.50;99.90;;;;;;5070774;28;20093;-84
2022/08/28 01:24:48;;;;;;;4.22;1.52;;;19.40;99.90;;;;;;5068762;28;20024;-83
2022/08/28 01:27:14;;;;;;;7.15;1.92;;;19.40;99.90;;;;;;5063218;28;20123;-84
2022/08/28 01:29:39;;;;;;;7.88;2.42;;;19.20;99.90;;;;;;5062865;28;20416;-85
2022/08/28 01:32:05;;;;;;;8.43;2.38;;;19.20;99.90;;;;;;5065634;28;20239;-84
2022/08/28 01:34:32;;;;;;;5.25;2.20;;;19.10;99.90;;;;;;5058233;28;20042;-84
2022/08/28 01:36:57;;;;;;;12.07;2.70;;;19.00;99.90;;;;;;5068463;28;20082;-84
2022/08/28 01:39:25;;;;;;;4.10;1.70;;;18.90;99.90;;;;;;5061988;28;20801;-82
2022/08/28 01:41:52;;;;;;;11.23;2.88;;;18.80;99.90;;;;;;5069637;28;20454;-83
2022/08/28 01:44:23;;;;;;;11.73;3.10;;;18.70;99.90;;;;;;5065069;28;20495;-82
2022/08/28 01:46:49;;;;;;;9.20;2.40;;;18.60;99.90;;;;;;5069783;28;20032;-83
2022/08/28 01:49:15;;;;;;;10.23;2.40;;;18.60;99.90;;;;;;5052150;28;20021;-81
2022/08/28 01:51:41;;;;;;;5.22;2.13;;;18.60;99.90;;;;;;5052386;28;20867;-85
2022/08/28 01:54:08;;;;;;;8.82;1.90;;;18.60;99.90;;;;;;5070439;28;20025;-82
2022/08/28 01:56:35;;;;;;;4.95;2.00;;;18.60;99.90;;;;;;5071801;28;20033;-82
2022/08/28 01:59:04;;;;;;;5.07;1.95;;;18.60;99.90;;;;;;5053150;28;20021;-82
2022/08/28 02:01:29;;;;;;;8.85;2.40;;;18.50;99.90;;;;;;5051124;28;20039;-82
2022/08/28 02:03:55;;;;;;;10.80;2.75;;;18.50;99.90;;;;;;5063611;28;20040;-82
2022/08/28 02:06:21;;;;;;;8.25;2.75;;;18.40;99.90;;;;;;5067096;28;20041;-83
2022/08/28 02:08:48;;;;;;;8.77;2.17;;;18.50;99.90;;;;;;5063996;28;20363;-82
2022/08/28 02:11:15;;;;;;;6.43;2.08;;;18.40;99.90;;;;;;5061987;28;20025;-83
2022/08/28 02:13:40;;;;;;;10.23;3.38;;;18.40;99.90;;;;;;5050923;28;20021;-81
2022/08/28 02:16:08;;;;;;;7.50;2.03;;;18.40;99.90;;;;;;5070783;28;20031;-85
2022/08/28 02:18:34;;;;;;;11.00;2.55;;;18.40;99.90;;;;;;5053471;28;20037;-83
2022/08/28 02:21:00;;;;;;;5.70;1.58;;;18.40;99.90;;;;;;5054677;28;20025;-82
2022/08/28 02:23:26;;;;;;;6.65;2.28;;;18.40;99.90;;;;;;5069535;28;20073;-83
2022/08/28 02:25:51;;;;;;;9.95;1.90;;;18.40;99.90;;;;;;5059174;28;20019;-82
2022/08/28 02:28:17;;;;;;;7.25;2.13;;;18.40;99.90;;;;;;5070918;28;20092;-82
2022/08/28 02:30:42;;;;;;;6.32;1.65;;;18.40;99.90;;;;;;5052786;28;20431;-83
2022/08/28 02:33:08;;;;;;;6.50;1.80;;;18.30;99.90;;;;;;5063351;28;20033;-82
2022/08/28 02:35:33;;;;;;;10.63;1.58;;;18.20;99.90;;;;;;5063173;28;20032;-82
2022/08/28 02:38:00;;;;;;;10.23;2.20;;;18.20;99.90;;;;;;5064153;28;20043;-83
2022/08/28 02:40:26;;;;;;;9.23;1.92;;;18.20;99.90;;;;;;5066274;28;20051;-85
2022/08/28 02:42:52;;;;;;;11.65;2.13;;;18.20;99.90;;;;;;5065047;28;20044;-84
2022/08/28 02:45:19;;;;;;;7.82;2.00;;;18.20;99.90;;;;;;5060586;28;20033;-83
2022/08/28 02:47:46;;;;;;;8.15;1.90;;;18.10;99.90;;;;;;5048930;28;20068;-85
2022/08/28 02:50:14;;;;;;;12.95;2.08;;;18.00;99.90;;;;;;5050758;28;20028;-84
2022/08/28 02:52:40;;;;;;;6.55;1.63;;;18.00;99.90;;;;;;5043946;28;20025;-84
2022/08/28 02:55:08;;;;;;;6.05;1.38;;;18.00;99.90;;;;;;5068300;28;20029;-82
2022/08/28 02:57:34;;;;;;;9.68;1.80;;;18.00;99.90;;;;;;5048017;28;20032;-82
2022/08/28 03:00:01;;;;;;;7.38;1.80;;;18.00;99.90;;;;;;5060252;28;20098;-83
2022/08/28 03:02:26;;;;;;;7.03;1.48;;;18.00;99.90;;;;;;5044587;28;20410;-82
2022/08/28 03:04:53;;;;;;;7.60;2.15;;;18.00;99.90;;;;;;5060560;28;20051;-83
2022/08/28 03:07:21;;;;;;;5.85;1.38;;;17.90;99.90;;;;;;5039945;28;20037;-85
2022/08/28 03:09:47;;;;;;;9.07;2.05;;;18.00;99.90;;;;;;5059839;28;20025;-83
2022/08/28 03:12:13;;;;;;;12.57;2.10;;;18.00;99.90;;;;;;5067592;28;20020;-82
2022/08/28 03:14:39;;;;;;;5.43;1.38;;;18.00;99.90;;;;;;5065502;28;20019;-84
2022/08/28 03:17:06;;;;;;;6.43;2.08;;;18.00;99.90;;;;;;5048332;28;20024;-82
2022/08/28 03:19:33;;;;;;;4.53;1.42;;;18.00;99.90;;;;;;5069053;28;20016;-82
2022/08/28 03:21:58;;;;;;;11.68;1.40;;;17.90;99.90;;;;;;5059896;28;20103;-82
2022/08/28 03:24:24;;;;;;;9.20;1.80;;;17.90;99.90;;;;;;5049518;28;20120;-81
2022/08/28 03:26:49;;;;;;;11.07;2.25;;;17.90;99.90;;;;;;5057730;28;20040;-81
2022/08/28 03:29:15;;;;;;;5.63;1.30;;;17.90;99.90;;;;;;5055476;28;20021;-82
2022/08/28 03:31:41;;;;;;;10.95;2.30;;;17.90;99.90;;;;;;5061648;28;20082;-84
2022/08/28 03:34:06;;;;;;;9.25;1.73;;;17.80;99.90;;;;;;5069366;28;20382;-82
2022/08/28 03:36:32;;;;;;;9.35;1.92;;;17.70;99.90;;;;;;5061578;28;20459;-84
2022/08/28 03:39:00;;;;;;;8.20;2.47;;;17.80;99.90;;;;;;5063123;28;20029;-83
2022/08/28 03:41:28;;;;;;;5.97;2.00;;;17.80;99.90;;;;;;5067939;28;20016;-82
2022/08/28 03:43:56;;;;;;;6.32;1.52;;;17.80;99.90;;;;;;5045941;28;20024;-83
2022/08/28 03:46:23;;;;;;;10.57;2.08;;;17.80;99.90;;;;;;5045132;28;20037;-83
2022/08/28 03:48:50;;;;;;;9.90;2.28;;;17.80;99.90;;;;;;5045774;28;20678;-83
2022/08/28 03:51:23;;;;;;;9.60;2.15;;;17.80;99.90;;;;;;5075269;28;20028;-83
2022/08/28 03:53:49;;;;;;;7.47;1.52;;;17.70;99.90;;;;;;5078386;28;20108;-82
2022/08/28 03:56:17;;;;;;;10.13;2.67;;;17.70;99.90;;;;;;5044121;28;20031;-81
2022/08/28 03:58:43;;;;;;;10.80;2.15;;;17.70;99.90;;;;;;5048075;28;20020;-81
2022/08/28 04:01:09;;;;;;;10.57;2.67;;;17.70;99.90;;;;;;5046759;28;20035;-84
2022/08/28 04:03:35;;;;;;;10.38;2.65;;;17.60;99.90;;;;;;5042316;28;20059;-82
2022/08/28 04:06:01;;;;;;;10.05;2.45;;;17.60;99.90;;;;;;5048880;28;20469;-81
2022/08/28 04:08:28;;;;;;;10.15;2.00;;;17.50;99.90;;;;;;5052318;28;20037;-86
2022/08/28 04:10:54;;;;;;;9.40;2.35;;;17.50;99.90;;;;;;5062218;28;20047;-83
2022/08/28 04:13:21;;;;;;;13.73;2.60;;;17.50;99.90;;;;;;5066120;28;20040;-85
2022/08/28 04:16:02;;;;;;;7.55;2.67;;;17.40;99.90;;;;;;5064413;28;20030;-82
2022/08/28 04:18:28;;;;;;;6.32;2.72;;;17.40;99.90;;;;;;5062405;28;20028;-83
2022/08/28 04:21:02;;;;;;;4.53;2.05;;;17.30;99.90;;;;;;5064914;28;20027;-83
2022/08/28 04:23:28;;;;;;;11.30;2.80;;;17.30;99.90;;;;;;5052537;28;20073;-83
2022/08/28 04:25:54;;;;;;;8.77;2.53;;;17.30;99.90;;;;;;5068706;28;20360;-85
2022/08/28 04:28:21;;;;;;;9.20;2.45;;;17.20;99.90;;;;;;5058458;28;20058;-82
2022/08/28 04:30:49;;;;;;;10.50;2.22;;;17.30;99.90;;;;;;5065957;28;20147;-83
2022/08/28 04:33:15;;;;;;;6.45;2.10;;;17.30;99.90;;;;;;5067719;28;20031;-81
2022/08/28 04:35:41;;;;;;;10.00;2.72;;;17.30;99.90;;;;;;5036589;28;20375;-83
2022/08/28 04:38:07;;;;;;;10.85;2.30;;;17.30;99.90;;;;;;5061805;28;20035;-82
2022/08/28 04:40:32;;;;;;;6.68;2.00;;;17.20;99.90;;;;;;5072849;28;20040;-82
2022/08/28 04:42:58;;;;;;;8.05;2.13;;;17.10;99.90;;;;;;5056816;28;20676;-82
2022/08/28 04:45:23;;;;;;;6.30;2.00;;;17.10;99.90;;;;;;5042749;28;20025;-81
2022/08/28 04:47:49;;;;;;;12.48;2.78;;;17.10;99.90;;;;;;5045491;28;20072;-82
2022/08/28 04:50:14;;;;;;;9.10;2.40;;;17.10;99.90;;;;;;5067140;28;20383;-82
2022/08/28 04:52:42;;;;;;;8.23;1.80;;;17.10;99.90;;;;;;5064891;28;20103;-83
2022/08/28 04:55:09;;;;;;;14.27;2.72;;;17.10;99.90;;;;;;5064040;28;20032;-81
2022/08/28 04:57:34;;;;;;;7.95;2.30;;;17.20;99.90;;;;;;5061980;28;20036;-82
2022/08/28 05:00:00;;;;;;;7.80;1.90;;;17.20;99.90;;;;;;5061261;28;20012;-82
2022/08/28 05:02:25;;;;;;;15.45;2.88;;;17.20;99.90;;;;;;5061531;28;20036;-83
2022/08/28 05:04:51;;;;;;;7.75;2.13;;;17.20;99.90;;;;;;5063672;28;20029;-82
2022/08/28 05:07:16;;;;;;;7.57;1.80;;;17.20;99.90;;;;;;5045200;28;20036;-82
2022/08/28 05:09:42;;;;;;;11.93;2.53;;;17.20;99.90;;;;;;5065010;28;20020;-83
2022/08/28 05:12:07;;;;;;;12.43;2.65;;;17.20;99.90;;;;;;5043386;28;20083;-84
2022/08/28 05:14:34;;;;;;;12.60;3.83;;;17.30;99.90;;;;;;5066471;28;20120;-81
2022/08/28 05:16:59;;;;;;;10.80;2.03;;;17.30;99.90;;;;;;5063958;28;20037;-82
2022/08/28 05:19:26;;;;;;;5.53;2.20;;;17.30;99.90;;;;;;5069106;28;20375;-80
2022/08/28 05:21:53;;;;;;;11.52;2.53;;;17.40;99.90;;;;;;5068268;28;20095;-82
2022/08/28 05:24:20;;;;;;;10.15;2.53;;;17.30;99.90;;;;;;5063961;28;20025;-81
2022/08/28 05:26:45;;;;;;;8.68;2.50;;;17.40;99.90;;;;;;5058145;28;20021;-80
2022/08/28 05:29:11;;;;;;;11.13;2.42;;;17.30;99.90;;;;;;5059577;28;20048;-79
2022/08/28 05:31:39;;;;;;;9.95;2.50;;;17.40;99.90;;;;;;5049592;28;20029;-83
2022/08/28 05:34:06;;;;;;;7.97;1.88;;;17.40;99.90;;;;;;5037073;28;20083;-81
2022/08/28 05:36:34;;;;;;;6.85;2.10;;;17.40;99.90;;;;;;5048245;28;20032;-81
2022/08/28 05:39:04;;;;;;;9.90;2.42;;;17.50;99.90;;;;;;5060136;28;20032;-81
2022/08/28 05:41:31;;;;;;;5.45;1.85;;;17.40;99.90;;;;;;5053162;28;20060;-81
2022/08/28 05:44:03;;;;;;;7.43;2.00;;;17.40;99.90;;;;;;5053473;28;20032;-82
2022/08/28 05:46:29;;;;;;;11.10;2.67;;;17.40;99.90;;;;;;5058793;28;20045;-80
2022/08/28 05:48:55;;;;;;;5.63;1.83;;;17.40;99.90;;;;;;5055925;28;20028;-81
2022/08/28 05:51:22;;;;;;;13.85;2.30;;;17.50;99.90;;;;;;5058513;28;20698;-82
2022/08/28 05:53:49;;;;;;;9.95;2.25;;;17.50;99.90;;;;;;5064583;28;20052;-80
2022/08/28 05:56:18;;;;;;;7.50;2.15;;;17.50;99.90;;;;;;5055716;28;20020;-80
2022/08/28 05:58:44;;;;;;;11.45;2.20;;;17.50;99.90;;;;;;5041228;28;20518;-80
2022/08/28 06:01:13;;;;;;;11.48;3.90;;;17.40;99.90;;;;;;5067917;28;20127;-80
2022/08/28 06:03:41;;;;;;;11.13;2.40;;;17.40;99.90;;;;;;5065037;28;20037;-82
2022/08/28 06:06:07;;;;;;;8.23;2.42;;;17.40;99.90;;;;;;5067934;28;20044;-81
2022/08/28 06:08:34;;;;;;;10.55;2.92;;;17.40;99.90;;;;;;5067064;28;20024;-80
2022/08/28 06:11:01;;;;;;;12.43;3.30;;;17.30;99.90;;;;;;5065087;28;20032;-81
2022/08/28 06:13:27;;;;;;;10.88;3.08;;;17.30;99.90;;;;;;5064102;28;20016;-80
2022/08/28 06:15:53;;;;;;;10.85;3.03;;;17.30;99.90;;;;;;5061626;28;20465;-82
2022/08/28 06:18:18;;;;;;;8.90;2.75;;;17.30;99.90;;;;;;5062701;28;20036;-83
2022/08/28 06:20:46;;;;;;;14.88;3.13;;;17.30;99.90;;;;;;5067177;28;20028;-80
2022/08/28 06:23:15;;;;;;;8.68;2.97;;;17.30;99.90;;;;;;5065924;28;20032;-79
2022/08/28 06:25:47;;;;;;;7.93;2.60;;;17.20;99.90;;;;;;5052703;28;20036;-82
2022/08/28 06:28:21;;;;;;;14.10;3.65;;;17.20;99.90;;;;;;5062140;28;20029;-81
2022/08/28 06:30:48;;;;;;;12.73;3.13;;;17.10;99.90;;;;;;5056769;28;20023;-82
2022/08/28 06:33:15;;;;;;;8.90;2.63;;;17.10;99.90;;;;;;5058559;28;20040;-81
2022/08/28 06:35:43;;;;;;;11.20;2.40;;;17.10;99.90;;;;;;5056464;28;20029;-80
2022/08/28 06:38:08;;;;;;;13.27;2.83;;;17.10;99.90;;;;;;5065548;28;20040;-80
2022/08/28 06:40:42;;;;;;;16.25;3.90;;;17.10;99.90;;;;;;5066700;28;20047;-80
2022/08/28 06:43:08;;;;;;;8.45;2.53;;;17.10;99.90;;;;;;5046056;28;20039;-80
2022/08/28 06:45:38;;;;;;;14.32;2.92;;;17.10;99.90;;;;;;5062311;28;20047;-79
2022/08/28 06:48:03;;;;;;;11.43;3.10;;;17.30;99.90;;;;;;5059070;28;20029;-81
2022/08/28 06:50:29;;;;;;;8.05;3.22;;;17.30;99.90;;;;;;5060477;28;20083;-79
2022/08/28 06:52:54;;;;;;;9.32;2.30;;;17.40;99.90;;;;;;5064502;28;20526;-80
2022/08/28 06:55:20;;;;;;;12.90;3.35;;;17.40;99.90;;;;;;5075715;28;20024;-80
2022/08/28 06:57:45;;;;;;;9.52;3.00;;;17.50;99.90;;;;;;5051306;28;20086;-80
2022/08/28 07:00:11;;;;;;;10.10;2.35;;;17.60;99.90;;;;;;5051849;28;20029;-82
2022/08/28 07:02:37;;;;;;;11.27;3.00;;;17.50;99.90;;;;;;5060258;28;20050;-79
2022/08/28 07:05:02;;;;;;;16.80;2.65;;;17.60;99.90;;;;;;5061472;28;20263;-81
2022/08/28 07:07:28;;;;;;;8.82;2.30;;;17.50;99.90;;;;;;5062230;28;20040;-81
2022/08/28 07:09:53;;;;;;;7.78;2.20;;;17.50;99.90;;;;;;5071836;28;20024;-81
2022/08/28 07:12:19;;;;;;;8.25;2.15;;;17.50;99.90;;;;;;5044601;28;20047;-84
2022/08/28 07:14:44;;;;;;;8.32;2.47;;;17.50;99.90;;;;;;5064168;28;20052;-83
2022/08/28 07:17:10;;;;;;;14.90;3.72;;;17.60;99.90;;;;;;5071669;28;20068;-81
2022/08/28 07:19:36;;;;;;;16.33;3.58;;;17.50;99.90;;;;;;5060430;28;20634;-80
2022/08/28 07:22:02;;;;;;;10.02;2.55;;;17.50;99.90;;;;;;5067179;28;20024;-80
2022/08/28 07:24:28;;;;;;;9.50;2.75;;;17.40;99.90;;;;;;5059370;28;20016;-79
2022/08/28 07:26:54;;;;;;;6.72;3.15;;;17.30;99.90;;;;;;5075145;28;20045;-80
2022/08/28 07:29:20;;;;;;;12.50;2.53;;;17.40;99.90;;;;;;5056984;28;20033;-82
2022/08/28 07:31:48;;;;;;;6.20;2.13;;;17.40;99.90;;;;;;5034629;28;20025;-80
2022/08/28 07:34:15;;;;;;;10.38;2.92;;;17.40;99.90;;;;;;5071728;28;20025;-80
2022/08/28 07:36:42;;;;;;;9.18;2.38;;;17.40;99.90;;;;;;5062872;28;20425;-81
2022/08/28 07:39:09;;;;;;;10.43;2.70;;;17.40;99.90;;;;;;5069325;28;20035;-82
2022/08/28 07:41:38;;;;;;;12.85;2.35;;;17.40;99.90;;;;;;5067306;28;20048;-81
2022/08/28 07:46:53;;;;;;;7.88;2.90;;;17.50;99.90;;;;;;5058231;28;20039;-81
2022/08/28 07:49:18;;;;;;;13.25;3.13;;;17.60;99.90;;;;;;5057598;28;20110;-80
2022/08/28 07:51:44;;;;;;;11.40;2.90;;;17.60;99.90;;;;;;5061750;28;20033;-82
2022/08/28 07:54:09;;;;;;;9.40;2.78;;;17.70;99.90;;;;;;5052436;28;20420;-81
2022/08/28 07:56:39;;;;;;;8.27;2.20;;;17.80;99.90;;;;;;5073691;28;20082;-81
2022/08/28 07:59:05;;;;;;;10.10;3.97;;;17.90;99.90;;;;;;5056463;28;20432;-82
2022/08/28 08:01:38;;;;;;;7.40;2.78;;;17.90;99.90;;;;;;5056824;28;20032;-81
2022/08/28 08:04:06;;;;;;;14.25;3.70;;;18.00;99.90;;;;;;5074443;28;20051;-82
2022/08/28 08:06:33;;;;;;;8.40;2.53;;;18.10;99.90;;;;;;5053328;28;20033;-81
2022/08/28 08:08:58;;;;;;;10.95;3.05;;;18.30;99.90;;;;;;5076486;28;20027;-79
2022/08/28 08:11:25;;;;;;;11.20;3.10;;;18.50;99.90;;;;;;5054500;28;20434;-80
2022/08/28 08:13:52;;;;;;;7.10;2.78;;;18.50;99.90;;;;;;5059390;28;20078;-81
2022/08/28 08:16:21;;;;;;;11.48;2.95;;;18.70;99.90;;;;;;5053679;28;20017;-81
2022/08/28 08:18:47;;;;;;;9.68;2.35;;;18.80;99.90;;;;;;5070855;28;20028;-83
2022/08/28 08:21:16;;;;;;;7.00;2.33;;;19.00;99.90;;;;;;5064312;28;20427;-80
2022/08/28 08:23:41;;;;;;;7.63;2.63;;;19.10;99.90;;;;;;5053467;28;20521;-81
2022/08/28 08:26:11;;;;;;;8.05;2.53;;;19.20;99.90;;;;;;5053048;28;20099;-81
2022/08/28 08:28:37;;;;;;;9.48;2.40;;;19.40;99.90;;;;;;5053486;28;20068;-83
2022/08/28 08:31:04;;;;;;;6.18;2.33;;;19.50;99.30;;;;;;5051014;28;20364;-82
2022/08/28 08:33:31;;;;;;;8.82;2.95;;;19.60;99.60;;;;;;5056857;28;20029;-82
2022/08/28 08:35:56;;;;;;;8.60;2.78;;;19.90;99.10;;;;;;5064960;28;20078;-81
2022/08/28 08:38:22;;;;;;;9.43;3.03;;;20.00;99.10;;;;;;5061741;28;20025;-80
2022/08/28 08:40:47;;;;;;;9.70;2.83;;;20.20;98.40;;;;;;5072780;28;20247;-81
2022/08/28 08:43:15;;;;;;;10.32;2.20;;;20.30;98.10;;;;;;5073223;28;20031;-81
2022/08/28 08:45:44;;;;;;;7.78;2.35;;;20.40;97.80;;;;;;5049852;28;20021;-80
2022/08/28 08:48:26;;;;;;;11.38;2.65;;;20.40;98.10;;;;;;5060148;28;20037;-80
2022/08/28 08:50:52;;;;;;;6.82;2.28;;;20.40;97.50;;;;;;5035604;28;20028;-82
2022/08/28 08:53:52;;;;;;;9.75;2.67;;;20.40;97.50;;;;;;5068927;28;20356;-82
2022/08/28 08:56:20;;;;;;;11.43;2.97;;;20.30;97.50;;;;;;5052702;28;20021;-81
2022/08/28 08:58:49;;;;;;;9.07;2.53;;;20.20;97.80;;;;;;5035073;28;20029;-83
2022/08/28 09:01:25;;;;;;;12.85;2.60;;;20.20;98.50;;;;;;5052662;28;20108;-81
2022/08/28 09:04:02;;;;;;;8.82;2.33;;;20.30;97.70;;;;;;5067794;28;20017;-80
2022/08/28 09:06:43;;;;;;;6.82;2.55;;;20.30;98.10;;;;;;5070592;28;20453;-82
2022/08/28 09:09:28;;;;;;;10.68;2.78;;;20.40;97.60;;;;;;5060042;28;20029;-81
2022/08/28 09:11:57;;;;;;;6.85;1.70;;;20.50;97.20;;;;;;5034743;28;20032;-82
2022/08/28 09:15:04;;;;;;;5.60;2.42;;;20.60;97.90;;;;;;5053286;28;20029;-83
2022/08/28 09:17:37;;;;;;;6.65;2.58;;;20.80;97.20;;;;;;5034168;28;20083;-81
2022/08/28 09:20:07;;;;;;;11.43;3.60;;;20.90;96.80;;;;;;5058884;28;20041;-82
2022/08/28 09:22:33;;;;;;;9.27;2.67;;;20.90;96.60;;;;;;5053970;28;20036;-81
2022/08/28 09:24:59;;;;;;;10.02;2.40;;;21.00;96.80;;;;;;5066945;28;20438;-81
2022/08/28 09:27:27;;;;;;;6.95;2.25;;;21.10;96.50;;;;;;5071705;28;20023;-81
2022/08/28 09:30:03;;;;;;;9.48;2.83;;;21.10;95.70;;;;;;5072328;28;20595;-82
2022/08/28 09:32:30;;;;;;;10.38;2.65;;;21.10;96.30;;;;;;5053116;28;20383;-81
2022/08/28 09:35:13;;;;;;;7.53;2.20;;;21.10;95.90;;;;;;5052013;28;20021;-81
2022/08/28 09:37:40;;;;;;;8.45;2.60;;;21.20;95.90;;;;;;5062490;28;20035;-81
2022/08/28 09:43:25;;;;;;;9.52;2.33;;;21.30;96.30;;;;;;5052030;28;20103;-82
2022/08/28 09:46:01;;;;;;;9.68;2.65;;;21.40;96.70;;;;;;5052256;28;20083;-82
2022/08/28 09:48:32;;;;;;;10.98;2.78;;;21.40;95.10;;;;;;5051817;28;20494;-82
2022/08/28 09:51:03;;;;;;;8.65;2.20;;;21.50;95.20;;;;;;5057661;28;20028;-81
2022/08/28 09:53:32;;;;;;;6.88;2.47;;;21.50;95.60;;;;;;5061774;28;20025;-81
2022/08/28 09:56:05;;;;;;;10.75;2.65;;;21.50;95.60;;;;;;5057038;28;20021;-81
2022/08/28 09:58:58;;;;;;;7.53;2.42;;;21.50;94.80;;;;;;5034805;28;20025;-82
2022/08/28 10:01:28;;;;;;;;;;;21.50;95.50;;;;;;5039173;28;20029;-80
2022/08/28 10:04:16;;;;;;;6.68;2.28;;;21.60;95.20;;;;;;5063296;28;20248;-81
2022/08/28 10:07:16;;;;;;;6.60;2.17;;;21.70;94.80;;;;;;5036423;28;20032;-81
2022/08/28 10:10:02;;;;;;;8.38;2.13;;;21.70;93.80;;;;;;5010065;28;20032;-81
2022/08/28 10:13:07;;;;;;;8.50;2.25;;;21.70;94.90;;;;;;5071890;28;20017;-81
2022/08/28 10:15:32;;;;;;;7.50;2.20;;;21.90;94.90;;;;;;5058561;28;20633;-81
2022/08/28 10:18:29;;;;;;;7.82;1.88;;;22.00;93.40;;;;;;5042202;28;20036;-81
2022/08/28 10:21:21;;;;;;;6.00;1.80;;;22.20;93.60;;;;;;5043168;28;20051;-80
2022/08/28 10:24:07;;;;;;;6.93;1.95;;;22.40;93.90;;;;;;5042959;28;20064;-81
2022/08/28 10:27:04;;;;;;;5.65;1.83;;;22.50;92.60;;;;;;5066385;28;20042;-80
2022/08/28 10:29:48;;;;;;;6.43;1.98;;;22.60;92.30;;;;;;5062862;28;20032;-80
2022/08/28 10:32:43;;;;;;;6.25;1.77;;;22.60;92.40;;;;;;5059716;28;20150;-82
2022/08/28 10:35:21;;;;;;;11.25;2.78;;;22.50;92.60;;;;;;5069181;28;20036;-80
2022/08/28 10:38:15;;;;;;;6.55;2.20;;;22.40;92.20;;;;;;5058540;28;20028;-80
2022/08/28 10:41:04;;;;;;;7.47;1.77;;;22.50;93.00;;;;;;5058588;28;20013;-81
2022/08/28 10:43:42;;;;;;;9.27;2.00;;;22.60;92.90;;;;;;5060108;28;20048;-81
2022/08/28 10:46:25;;;;;;;6.72;2.58;;;22.90;93.40;;;;;;5052508;28;20075;-82
2022/08/28 10:48:53;;;;;;;8.57;2.17;;;22.90;92.30;;;;;;5069375;28;20078;-82
2022/08/28 10:51:52;;;;;;;4.13;1.67;;;23.10;91.40;;;;;;5065328;28;20098;-81
2022/08/28 10:54:29;;;;;;;6.40;2.35;;;23.10;91.50;;;;;;5056216;28;20378;-80
2022/08/28 10:57:18;;;;;;;6.43;2.05;;;23.20;92.30;;;;;;5052228;28;20028;-81
2022/08/28 10:59:47;;;;;;;8.95;2.50;;;23.40;91.60;;;;;;5078939;28;20032;-80
2022/08/28 11:02:15;;;;;;;10.02;2.35;;;23.50;91.20;;;;;;5092255;28;20016;-80
2022/08/28 11:04:41;;;;;;;6.60;2.15;;;23.60;91.10;;;;;;5076332;28;20021;-80
2022/08/28 11:07:19;;;;;;;8.95;2.10;;;23.60;91.10;;;;;;5057812;28;20043;-81
2022/08/28 11:09:47;;;;;;;5.65;1.83;;;23.50;90.90;;;;;;5041532;28;20025;-80
2022/08/28 11:12:16;;;;;;;6.43;2.33;;;23.50;91.20;;;;;;5059441;28;20025;-84
2022/08/28 11:14:44;;;;;;;7.63;2.40;;;23.50;91.80;;;;;;5060819;28;20025;-80
2022/08/28 11:17:39;;;;;;;8.10;2.30;;;23.70;91.80;;;;;;5050841;28;20033;-79
2022/08/28 11:20:23;;;;;;;9.15;2.08;;;23.80;90.80;;;;;;5060671;28;20110;-82
2022/08/28 11:22:58;;;;;;;8.13;2.00;;;23.80;90.70;;;;;;5063788;28;20028;-81
2022/08/28 11:25:44;;;;;;;7.95;2.92;;;23.90;90.90;;;;;;5051197;28;20032;-81
2022/08/28 11:28:24;;;;;;;4.88;2.00;;;24.00;90.20;;;;;;5067763;28;20029;-79
2022/08/28 11:31:05;;;;;;;7.03;1.92;;;24.10;90.60;;;;;;5046511;28;20059;-81
2022/08/28 11:33:49;;;;;;;7.05;2.00;;;24.10;90.40;;;;;;5069452;28;20477;-82
2022/08/28 11:36:20;;;;;;;6.43;1.92;;;24.20;90.60;;;;;;5059251;28;20033;-84
2022/08/28 11:38:53;;;;;;;5.20;1.80;;;24.30;90.50;;;;;;5067154;28;20024;-86
2022/08/28 11:41:23;;;;;;;;;;;24.30;90.00;;;;;;5065068;28;20708;-84
2022/08/28 11:44:08;;;;;;;5.10;1.73;;;24.40;89.00;;;;;;5064965;28;19909;-81
2022/08/28 11:46:37;;;;;;;5.50;1.95;;;24.40;88.20;;;;;;5065506;28;20028;-81
2022/08/28 11:49:28;;;;;;;9.90;2.05;;;24.50;90.00;;;;;;5064853;28;20017;-81
2022/08/28 11:52:14;;;;;;;6.47;2.28;;;24.40;88.00;;;;;;5068484;28;20025;-84
2022/08/28 11:55:07;;;;;;;4.43;1.80;;;24.20;87.90;;;;;;5067103;28;20115;-80
2022/08/28 11:58:09;;;;;;;10.85;2.35;;;24.30;89.70;;;;;;5063008;28;20033;-83
2022/08/28 12:00:58;;;;;;;4.35;1.75;;;24.50;89.70;;;;;;5063014;28;20032;-80
2022/08/28 12:03:41;;;;;;;3.95;1.73;;;24.70;88.30;;;;;;5068855;28;20543;-82
2022/08/28 12:06:09;;;;;;;4.75;1.90;;;24.90;88.60;;;;;;5065826;28;20024;-81
2022/08/28 12:09:01;;;;;;;6.68;1.58;;;25.00;89.00;;;;;;5069017;28;20084;-81
2022/08/28 12:11:39;;;;;;;5.18;2.05;;;25.10;87.90;;;;;;5067370;28;20446;-84
2022/08/28 12:14:09;;;;;;;6.47;1.67;;;25.20;87.00;;;;;;5064863;28;20040;-81
2022/08/28 12:16:58;;;;;;;5.85;2.35;;;25.30;87.50;;;;;;5072260;28;20040;-79
2022/08/28 12:19:46;;;;;;;10.18;2.47;;;25.30;85.00;;;;;;5050920;28;20124;-83
2022/08/28 12:22:15;;;;;;;5.35;1.90;;;25.10;85.20;;;;;;5059119;28;20029;-82
2022/08/28 12:25:00;;;;;;;6.90;2.00;;;25.10;86.00;;;;;;5060759;28;20017;-83
2022/08/28 12:27:27;;;;;;;8.77;2.95;;;25.10;83.50;;;;;;5073565;28;20491;-80
2022/08/28 12:29:58;;;;;;;4.60;1.80;;;25.20;83.20;;;;;;5063235;28;20025;-83
2022/08/28 12:32:43;;;;;;;5.20;1.60;;;25.10;84.60;;;;;;5066215;28;20801;-82
2022/08/28 12:35:17;;;;;;;5.90;1.17;;;25.20;84.20;;;;;;5051912;28;20036;-80
2022/08/28 12:38:00;;;;;;;6.85;1.85;;;25.20;83.10;;;;;;5069238;28;20437;-81
2022/08/28 12:40:40;;;;;;;4.63;1.60;;;25.20;83.50;;;;;;5060604;28;20032;-79
2022/08/28 12:43:11;;;;;;;5.45;1.67;;;25.20;83.30;;;;;;5063760;28;20028;-80
2022/08/28 12:45:41;;;;;;;3.85;1.70;;;25.20;83.20;;;;;;5064500;28;20082;-83
2022/08/28 12:48:21;;;;;;;4.85;1.83;;;25.30;83.70;;;;;;5062655;28;20040;-84
2022/08/28 12:50:55;;;;;;;5.72;1.75;;;25.40;83.10;;;;;;5042665;28;20036;-81
2022/08/28 12:53:21;;;;;;;5.68;1.90;;;25.40;80.70;;;;;;5040839;28;20020;-83
2022/08/28 12:55:47;;;;;;;3.40;1.35;;;25.40;80.60;;;;;;5062339;28;20052;-85
2022/08/28 12:58:26;;;;;;;7.20;1.70;;;25.60;81.50;;;;;;5045386;28;20473;-87
2022/08/28 13:00:56;;;;;;;10.85;1.70;;;25.70;81.70;;;;;;5059336;28;20025;-85
2022/08/28 13:03:22;;;;;;;3.90;1.75;;;25.70;82.30;;;;;;5041091;28;20059;-86
2022/08/28 13:06:12;;;;;;;3.97;1.85;;;25.80;80.30;;;;;;5046053;28;20501;-86
2022/08/28 13:08:39;;;;;;;3.88;1.67;;;25.90;81.30;;;;;;5048669;28;20473;-85
2022/08/28 13:11:04;;;;;;;4.80;1.88;;;26.00;80.10;;;;;;5040855;28;20024;-85